createdAt,value
2023-01-10T00:01:14.209Z,21.90
2023-01-10T00:03:42.749Z,22.00
2023-01-10T00:06:11.234Z,21.90
2023-01-10T00:08:39.727Z,21.90
2023-01-10T00:11:21.989Z,21.90
2023-01-10T00:13:53.734Z,21.90
2023-01-10T01:00:46.827Z,21.80
2023-01-10T01:03:15.387Z,21.90
2023-01-10T01:05:44.648Z,21.80
2023-01-10T01:08:14.497Z,21.80
2023-01-10T01:10:42.913Z,21.80
2023-01-10T01:13:15.193Z,21.80
2023-01-10T02:01:08.889Z,22.10
2023-01-10T02:03:39.356Z,21.70
2023-01-10T02:06:09.524Z,21.70
2023-01-10T02:08:41.624Z,21.70
2023-01-10T02:11:11.807Z,21.80
2023-01-10T02:13:43.443Z,21.70
2023-01-10T03:02:00.423Z,21.70
2023-01-10T03:04:45.555Z,21.70
2023-01-10T03:07:25.447Z,21.70
2023-01-10T03:10:00.182Z,21.70
2023-01-10T03:12:35.134Z,21.80
2023-01-10T04:02:04.852Z,21.60
2023-01-10T04:04:33.673Z,21.60
2023-01-10T04:07:02.220Z,21.60
2023-01-10T04:09:30.674Z,21.60
2023-01-10T04:11:59.172Z,21.60
2023-01-10T04:14:27.824Z,21.60
2023-01-10T05:01:12.369Z,21.60
2023-01-10T05:03:41.054Z,21.60
2023-01-10T05:06:10.054Z,21.50
2023-01-10T05:08:38.548Z,21.60
2023-01-10T05:11:07.057Z,21.60
2023-01-10T05:13:35.883Z,21.60
2023-01-10T06:00:20.935Z,21.70
2023-01-10T06:02:49.511Z,21.70
2023-01-10T06:05:18.329Z,21.70
2023-01-10T06:07:46.802Z,21.70
2023-01-10T06:10:15.444Z,21.60
2023-01-10T06:12:44.194Z,21.60
2023-01-10T06:32:42.493Z,21.80
2023-01-10T06:35:11.626Z,21.80
2023-01-10T06:37:40.230Z,21.70
2023-01-10T06:40:10.731Z,21.60
2023-01-10T06:42:41.053Z,21.60
2023-01-10T06:45:10.939Z,21.60
2023-01-10T06:47:40.711Z,21.60
2023-01-10T06:50:10.938Z,21.60
2023-01-10T06:52:39.518Z,21.60
2023-01-10T06:55:09.546Z,21.50
2023-01-10T06:57:38.528Z,21.50
2023-01-10T07:00:11.748Z,21.50
2023-01-10T07:02:41.574Z,21.50
2023-01-10T07:05:11.620Z,21.60
2023-01-10T07:07:40.237Z,21.60
2023-01-10T07:10:10.656Z,21.70
2023-01-10T07:12:39.152Z,21.80
2023-01-10T07:15:09.265Z,21.90
2023-01-10T07:17:37.710Z,22.10
2023-01-10T07:20:09.607Z,21.90
2023-01-10T07:22:38.031Z,21.90
2023-01-10T07:25:07.707Z,21.90
2023-01-10T07:27:36.801Z,21.90
2023-01-10T07:30:06.530Z,21.70
2023-01-10T07:32:35.840Z,21.70
2023-01-10T07:35:04.464Z,21.70
2023-01-10T07:37:34.231Z,21.60
2023-01-10T07:40:02.663Z,21.60
2023-01-10T07:42:31.200Z,21.60
2023-01-10T07:44:59.583Z,21.60
2023-01-10T07:47:28.602Z,21.50
2023-01-10T07:49:57.049Z,21.60
2023-01-10T07:52:25.582Z,21.50
2023-01-10T07:54:55.581Z,21.60
2023-01-10T07:57:24.018Z,21.50
2023-01-10T07:59:52.438Z,21.50
2023-01-10T08:46:16.224Z,21.40
2023-01-10T08:48:45.127Z,21.50
2023-01-10T08:51:13.692Z,21.50
2023-01-10T08:53:42.158Z,21.50
2023-01-10T08:56:11.255Z,21.40
2023-01-10T08:58:39.820Z,21.50
2023-01-10T09:45:28.485Z,21.50
2023-01-10T09:48:04.738Z,21.50
2023-01-10T09:50:44.343Z,21.60
2023-01-10T09:53:17.033Z,21.60
2023-01-10T09:55:51.446Z,21.60
2023-01-10T09:58:22.411Z,21.60
2023-01-10T10:20:14.716Z,21.60
2023-01-10T10:22:55.101Z,21.60
2023-01-10T10:25:45.831Z,21.70
2023-01-10T10:29:00.656Z,21.70
2023-01-10T10:32:11.757Z,21.70
2023-01-10T10:34:47.116Z,21.70
2023-01-10T10:37:25.269Z,21.70
2023-01-10T10:39:58.367Z,21.70
2023-01-10T10:42:35.640Z,21.70
2023-01-10T10:45:19.299Z,21.70
2023-01-10T10:47:57.672Z,21.60
2023-01-10T10:50:33.720Z,21.70
2023-01-10T10:53:05.752Z,21.70
2023-01-10T10:55:39.627Z,21.80
2023-01-10T10:58:11.821Z,22.30
2023-01-10T11:00:42.895Z,21.80
2023-01-10T11:03:28.827Z,21.70
2023-01-10T11:05:58.567Z,21.80
2023-01-10T11:08:31.763Z,21.70
2023-01-10T11:11:03.971Z,21.80
2023-01-10T11:13:47.612Z,21.80
2023-01-10T11:16:29.004Z,21.80
2023-01-10T11:19:20.126Z,21.80
2023-01-10T11:21:57.910Z,21.80
2023-01-10T11:24:34.740Z,21.80
2023-01-10T11:27:16.988Z,21.80
2023-01-10T11:29:50.558Z,21.80
2023-01-10T11:32:21.935Z,21.70
2023-01-10T11:34:55.052Z,21.70
2023-01-10T11:37:29.412Z,21.70
2023-01-10T11:40:24.462Z,21.60
2023-01-10T11:42:57.102Z,21.70
2023-01-10T11:45:33.315Z,21.70
2023-01-10T11:48:09.675Z,21.80
2023-01-10T11:50:45.596Z,21.90
2023-01-10T11:53:37.533Z,22.00
2023-01-10T11:56:11.586Z,22.00
2023-01-10T11:58:41.480Z,22.00
2023-01-10T12:01:31.728Z,22.10
2023-01-10T12:04:00.742Z,22.30
2023-01-10T12:06:30.035Z,22.30
2023-01-10T12:08:58.595Z,22.40
2023-01-10T12:11:32.175Z,22.50
2023-01-10T12:14:02.898Z,22.60
2023-01-10T12:16:33.449Z,22.60
2023-01-10T12:19:05.586Z,22.60
2023-01-10T12:21:40.961Z,22.50
2023-01-10T12:24:15.933Z,22.50
2023-01-10T12:26:47.581Z,22.40
2023-01-10T12:29:22.128Z,22.40
2023-01-10T12:31:52.406Z,22.40
2023-01-10T12:34:24.360Z,22.30
2023-01-10T12:37:06.637Z,22.30
2023-01-10T12:39:40.633Z,22.30
2023-01-10T12:42:48.365Z,22.20
2023-01-10T12:45:24.335Z,22.20
2023-01-10T12:48:04.096Z,22.20
2023-01-10T12:50:38.291Z,22.20
2023-01-10T12:53:14.132Z,22.20
2023-01-10T12:55:46.629Z,22.20
2023-01-10T12:58:23.167Z,22.20
2023-01-10T13:00:55.541Z,22.20
2023-01-10T13:03:28.973Z,22.20
2023-01-10T13:05:59.610Z,22.20
2023-01-10T13:08:31.740Z,22.20
2023-01-10T13:11:02.043Z,22.20
2023-01-10T13:13:36.464Z,22.20
2023-01-10T13:16:25.108Z,22.20
2023-01-10T13:19:06.863Z,22.20
2023-01-10T13:21:36.208Z,22.20
2023-01-10T13:24:07.838Z,22.20
2023-01-10T13:26:53.636Z,22.20
2023-01-10T13:29:26.367Z,22.20
2023-01-10T13:31:58.177Z,22.20
2023-01-10T13:34:34.937Z,22.20
2023-01-10T13:37:13.029Z,22.20
2023-01-10T13:39:45.966Z,22.20
2023-01-10T13:42:48.991Z,22.20
2023-01-10T13:45:23.753Z,22.20
2023-01-10T13:48:21.994Z,22.10
2023-01-10T13:51:15.709Z,22.10
2023-01-10T13:54:00.348Z,22.10
2023-01-10T13:56:40.751Z,22.10
2023-01-10T13:59:33.566Z,22.10
2023-01-10T14:02:21.783Z,22.40
2023-01-10T14:04:54.015Z,22.10
2023-01-10T14:07:30.612Z,22.10
2023-01-10T14:10:06.774Z,22.10
2023-01-10T14:12:40.229Z,22.00
2023-01-10T14:15:25.965Z,22.00
2023-01-10T14:18:02.344Z,21.80
2023-01-10T14:20:33.276Z,22.00
2023-01-10T14:23:07.325Z,21.90
2023-01-10T14:25:38.475Z,21.90
2023-01-10T14:28:21.318Z,21.90
2023-01-10T14:31:04.801Z,21.90
2023-01-10T14:33:35.833Z,21.80
2023-01-10T14:36:10.058Z,21.80
2023-01-10T14:38:40.366Z,21.80
2023-01-10T14:41:17.260Z,21.80
2023-01-10T14:43:51.302Z,21.80
2023-01-10T14:46:26.156Z,21.80
2023-01-10T14:49:00.676Z,21.80
2023-01-10T14:51:30.887Z,21.80
2023-01-10T14:54:02.329Z,21.90
2023-01-10T14:56:38.664Z,21.90
2023-01-10T14:59:28.792Z,22.00
2023-01-10T15:52:31.114Z,22.00
2023-01-10T15:54:59.718Z,22.10
2023-01-10T15:57:32.952Z,22.10
2023-01-10T16:00:02.909Z,22.10
2023-01-10T16:02:37.895Z,22.10
2023-01-10T16:05:12.564Z,22.20
2023-01-10T16:07:47.131Z,22.20
2023-01-10T16:10:21.780Z,22.20
2023-01-10T16:13:07.818Z,22.20
2023-01-10T16:15:39.229Z,22.20
2023-01-10T16:18:07.851Z,22.20
2023-01-10T16:20:40.589Z,22.20
2023-01-10T16:23:18.418Z,22.20
2023-01-10T16:25:49.714Z,22.20
2023-01-10T16:28:20.350Z,22.20
2023-01-10T16:30:49.473Z,22.30
2023-01-10T16:33:23.317Z,22.30
2023-01-10T16:35:55.398Z,22.30
2023-01-10T16:38:27.369Z,22.30
2023-01-10T16:40:59.751Z,22.30
2023-01-10T16:43:29.271Z,22.30
2023-01-10T17:01:54.496Z,22.40
2023-01-10T17:04:27.335Z,22.30
2023-01-10T17:06:56.704Z,22.30
2023-01-10T17:09:27.894Z,22.20
2023-01-10T17:12:02.841Z,22.20
2023-01-10T17:14:33.688Z,22.20
2023-01-10T17:17:03.884Z,22.20
2023-01-10T17:19:32.475Z,22.20
2023-01-10T17:22:01.672Z,22.20
2023-01-10T17:24:30.660Z,22.20
2023-01-10T17:26:59.808Z,22.20
2023-01-10T17:29:30.394Z,22.20
2023-01-10T17:31:59.156Z,22.20
2023-01-10T17:34:31.099Z,22.20
2023-01-10T17:36:59.755Z,22.20
2023-01-10T17:39:28.429Z,22.20
2023-01-10T17:41:57.734Z,22.20
2023-01-10T17:44:26.520Z,22.20
2023-01-10T18:01:36.469Z,22.20
2023-01-10T18:04:05.423Z,22.20
2023-01-10T18:06:34.275Z,22.20
2023-01-10T18:09:04.404Z,22.30
2023-01-10T18:11:33.809Z,22.20
2023-01-10T18:14:23.215Z,22.30
2023-01-10T18:16:57.741Z,22.30
2023-01-10T18:19:26.662Z,22.30
2023-01-10T18:21:55.277Z,22.30
2023-01-10T18:24:24.079Z,22.40
2023-01-10T18:26:52.555Z,22.30
2023-01-10T18:29:21.297Z,22.30
2023-01-10T18:31:49.985Z,22.30
2023-01-10T18:34:20.269Z,22.30
2023-01-10T18:36:48.816Z,22.30
2023-01-10T18:39:17.682Z,22.20
2023-01-10T18:41:46.358Z,22.20
2023-01-10T18:44:15.065Z,22.20
2023-01-10T18:49:48.419Z,22.20
2023-01-10T18:52:17.595Z,22.20
2023-01-10T18:54:47.750Z,22.20
2023-01-10T18:57:16.691Z,22.30
2023-01-10T18:59:46.379Z,22.30
2023-01-10T19:02:15.979Z,22.50
2023-01-10T19:04:46.472Z,22.50
2023-01-10T19:07:15.408Z,22.70
2023-01-10T19:09:44.185Z,22.70
2023-01-10T19:12:12.935Z,22.80
2023-01-10T19:14:42.038Z,22.80
2023-01-10T19:17:10.848Z,22.80
2023-01-10T19:19:39.737Z,22.90
2023-01-10T19:22:09.947Z,22.90
2023-01-10T19:24:39.233Z,22.90
2023-01-10T19:27:07.972Z,22.90
2023-01-10T19:29:37.352Z,23.00
2023-01-10T19:32:06.005Z,23.00
2023-01-10T19:34:34.686Z,23.00
2023-01-10T19:37:03.441Z,22.90
2023-01-10T19:39:33.747Z,22.90
2023-01-10T19:42:02.648Z,23.00
2023-01-10T19:44:31.317Z,23.00
2023-01-10T19:47:00.268Z,23.00
2023-01-10T19:49:34.782Z,23.00
2023-01-10T19:52:05.335Z,22.90
2023-01-10T19:54:37.717Z,22.90
2023-01-10T19:57:08.311Z,23.00
2023-01-10T19:59:37.010Z,23.00
2023-01-10T20:02:06.487Z,23.00
2023-01-10T20:04:35.275Z,22.90
2023-01-10T20:07:05.068Z,22.90
2023-01-10T20:09:36.795Z,22.90
2023-01-10T20:12:06.107Z,22.80
2023-01-10T20:14:35.141Z,22.80
2023-01-10T20:17:04.917Z,22.70
2023-01-10T20:19:33.444Z,22.70
2023-01-10T20:22:02.091Z,22.70
2023-01-10T20:24:30.832Z,22.70
2023-01-10T20:27:04.558Z,22.70
2023-01-10T20:29:34.157Z,22.70
2023-01-10T20:32:04.371Z,22.70
2023-01-10T20:34:33.513Z,22.80
2023-01-10T20:37:09.437Z,22.60
2023-01-10T20:39:38.615Z,22.60
2023-01-10T20:42:09.617Z,22.60
2023-01-10T20:44:39.302Z,22.60
2023-01-10T20:47:08.180Z,22.60
2023-01-10T20:49:37.659Z,22.60
2023-01-10T20:52:09.125Z,22.60
2023-01-10T20:54:38.979Z,22.60
2023-01-10T20:57:12.568Z,22.60
2023-01-10T20:59:42.965Z,22.60
2023-01-10T21:05:21.562Z,22.60
2023-01-10T21:07:51.011Z,22.60
2023-01-10T21:10:20.557Z,22.60
2023-01-10T21:12:50.819Z,22.60
2023-01-10T21:15:19.379Z,22.60
2023-01-10T21:17:50.224Z,22.60
2023-01-10T21:20:19.758Z,22.60
2023-01-10T21:22:48.502Z,22.60
2023-01-10T21:25:17.585Z,22.60
2023-01-10T21:27:46.283Z,22.60
2023-01-10T21:30:18.831Z,22.50
2023-01-10T21:32:47.458Z,22.50
2023-01-10T21:35:16.305Z,22.50
2023-01-10T21:37:45.305Z,22.40
2023-01-10T21:40:14.038Z,22.40
2023-01-10T21:42:44.972Z,22.40
2023-01-10T21:45:16.929Z,22.40
2023-01-10T21:47:46.209Z,21.90
2023-01-10T21:50:16.146Z,22.40
2023-01-10T21:52:45.412Z,22.40
2023-01-10T21:55:17.287Z,22.30
2023-01-10T21:57:46.081Z,22.60
2023-01-10T22:03:18.750Z,22.30
2023-01-10T22:05:49.110Z,22.30
2023-01-10T22:08:18.097Z,22.30
2023-01-10T22:10:47.015Z,22.30
2023-01-10T22:13:15.899Z,22.20
2023-01-10T22:15:45.019Z,22.20
2023-01-10T22:18:14.096Z,22.20
2023-01-10T22:20:47.597Z,22.20
2023-01-10T22:23:16.322Z,22.10
2023-01-10T22:25:44.953Z,22.20
2023-01-10T22:28:13.608Z,22.20
2023-01-10T22:30:42.168Z,22.20
2023-01-10T22:33:10.883Z,22.30
2023-01-10T22:35:39.788Z,22.20
2023-01-10T22:38:09.826Z,22.20
2023-01-10T22:40:38.628Z,22.30
2023-01-10T22:43:07.402Z,22.30
2023-01-10T22:45:40.149Z,22.30
2023-01-10T22:48:09.933Z,22.30
2023-01-10T22:50:39.593Z,22.20
2023-01-10T22:53:09.989Z,22.20
2023-01-10T22:55:39.036Z,22.20
2023-01-10T22:58:08.518Z,22.20
2023-01-10T23:00:37.459Z,22.20
2023-01-10T23:03:06.729Z,22.20
2023-01-10T23:05:36.101Z,22.20
2023-01-10T23:08:04.744Z,22.20
2023-01-10T23:10:35.013Z,22.20
2023-01-10T23:13:05.158Z,22.20
